Portada
METAR-TAF:

METAR-TAF

Aeroports :

Cumberland, Wisconsin, Estats Units d'Amèrica

latitud: 45-30-21N, longitud: 091-58-52W, altitud: 379 m

Observació

L'informe es va fer fa 15 hores i 54 minuts, a les 15:15 UTC
Vent 3 kt del Nord/Nord-Oest
Temperatura -7°C
Humitat 93%
Pressió 1009 hPa
Visibilitat: 4.8 km
Cel ennuvolat a una alçada de 700 ft
Cel cobert a una alçada de 1600 ft
boirina

METAR: KUBE 201515Z AUTO 33003KT 3SM BR BKN007 OVC016 M07/M08 A2981 RMK AO2

Hora: 01:09 (07:09 UTC)


TAF: manca

Observacions i pronòstics meteorològics de més de 4000 aeroports (METAR i TAF).

Les estacions disponibles són els punts grocs i vermells al mapa.

Posi el ratolí al punt desitjat per veure el nom de l'estació.

Feu clic per veure les observacions i els pronòstics meteorològics.

Per canviar el mapa: feu clic els botons verds amb una creu de color negre per apropar; al botó verd amb un guió per allunyar la imatge; o en les fletxes verdes per a mapes adjacents.


METAR-TAF: